HBH1140 ZJHK-ZGGG
Flight info
| Callsign | HBH1140 |
|---|---|
| Flight time | 1h 6m |
| Altitude | 26600 |
| Route | AGTEL9XD AGTEL W71 LH DCT GYA GYA9 |
| Aircraft | A320/M-SDE3FGHIRWY/LB1 |
Departure
| Time | 2026-04-22 15:36 |
|---|---|
| Airport | Haikou Meilan International Airport (ZJHK) |
Arrival
| Time | 2026-04-22 16:42 |
|---|---|
| Airport | Guangzhou Baiyun International Airport (ZGGG) |
| Time | Latitude | Longitude | Altitude | Speed | Heading |
|---|---|---|---|---|---|
| 2026-04-22 15:33 | 19.93474 | 110.44202 | 87 ft | 0 kts | 90° |
| 2026-04-22 15:35 | 19.93475 | 110.44391 | 83 ft | 63 kts | 90° |
| 2026-04-22 15:35 | 19.93473 | 110.45093 | 81 ft | 124 kts | 90° |
| 2026-04-22 15:35 | 19.93448 | 110.46191 | 110 ft | 168 kts | 94° |
| 2026-04-22 15:36 | 19.93424 | 110.47435 | 738 ft | 169 kts | 92° |
| 2026-04-22 15:36 | 19.93434 | 110.48673 | 1431 ft | 170 kts | 94° |
| 2026-04-22 15:36 | 19.93450 | 110.49937 | 1992 ft | 175 kts | 91° |
| 2026-04-22 15:36 | 19.93465 | 110.51306 | 2265 ft | 196 kts | 90° |
| 2026-04-22 15:37 | 19.93479 | 110.52841 | 2487 ft | 220 kts | 89° |
| 2026-04-22 15:37 | 19.93493 | 110.54553 | 2841 ft | 241 kts | 89° |
| 2026-04-22 15:37 | 19.93505 | 110.56361 | 3525 ft | 247 kts | 90° |
| 2026-04-22 15:37 | 19.93660 | 110.58189 | 4248 ft | 253 kts | 71° |
| 2026-04-22 15:38 | 19.94684 | 110.59702 | 4910 ft | 260 kts | 34° |
| 2026-04-22 15:38 | 19.98186 | 110.60398 | 6298 ft | 266 kts | 354° |
| 2026-04-22 15:38 | 20.00036 | 110.60232 | 7026 ft | 268 kts | 352° |
| 2026-04-22 15:39 | 20.01901 | 110.60037 | 7791 ft | 270 kts | 353° |
| 2026-04-22 15:39 | 20.03777 | 110.59884 | 8547 ft | 272 kts | 354° |
| 2026-04-22 15:39 | 20.05685 | 110.59782 | 9293 ft | 275 kts | 355° |
| 2026-04-22 15:39 | 20.07608 | 110.59724 | 10018 ft | 278 kts | 356° |
| 2026-04-22 15:40 | 20.09547 | 110.59691 | 10695 ft | 280 kts | 355° |
| 2026-04-22 15:40 | 20.11455 | 110.59406 | 11197 ft | 288 kts | 344° |
| 2026-04-22 15:40 | 20.13480 | 110.58902 | 11366 ft | 311 kts | 343° |
| 2026-04-22 15:40 | 20.15645 | 110.58296 | 11509 ft | 332 kts | 337° |
| 2026-04-22 15:41 | 20.17706 | 110.57073 | 11641 ft | 349 kts | 318° |
| 2026-04-22 15:41 | 20.19337 | 110.55102 | 11755 ft | 364 kts | 299° |
| 2026-04-22 15:41 | 20.20359 | 110.52583 | 11878 ft | 379 kts | 289° |
| 2026-04-22 15:41 | 20.21296 | 110.49897 | 12063 ft | 393 kts | 293° |
| 2026-04-22 15:42 | 20.22775 | 110.47426 | 12463 ft | 401 kts | 310° |
| 2026-04-22 15:42 | 20.24914 | 110.45547 | 12913 ft | 410 kts | 328° |
| 2026-04-22 15:42 | 20.27603 | 110.44487 | 13367 ft | 419 kts | 348° |
| 2026-04-22 15:42 | 20.30536 | 110.44458 | 13819 ft | 428 kts | 7° |
| 2026-04-22 15:43 | 20.33358 | 110.45503 | 14235 ft | 435 kts | 27° |
| 2026-04-22 15:43 | 20.35911 | 110.47265 | 14657 ft | 438 kts | 32° |
| 2026-04-22 15:43 | 20.38434 | 110.49096 | 15080 ft | 441 kts | 32° |
| 2026-04-22 15:43 | 20.40969 | 110.50955 | 15490 ft | 443 kts | 32° |
| 2026-04-22 15:44 | 20.43508 | 110.52821 | 15892 ft | 445 kts | 32° |
| 2026-04-22 15:44 | 20.46070 | 110.54699 | 16292 ft | 447 kts | 32° |
| 2026-04-22 15:44 | 20.48605 | 110.56550 | 16671 ft | 449 kts | 32° |
| 2026-04-22 15:44 | 20.51198 | 110.58437 | 17047 ft | 452 kts | 32° |
| 2026-04-22 15:45 | 20.53802 | 110.60327 | 17442 ft | 454 kts | 32° |
| 2026-04-22 15:45 | 20.56420 | 110.62225 | 17760 ft | 457 kts | 31° |
| 2026-04-22 15:45 | 20.59059 | 110.64142 | 18106 ft | 460 kts | 32° |
| 2026-04-22 15:45 | 20.61711 | 110.66070 | 18406 ft | 462 kts | 32° |
| 2026-04-22 15:46 | 20.64371 | 110.68010 | 18691 ft | 464 kts | 32° |
| 2026-04-22 15:46 | 20.67044 | 110.69963 | 18981 ft | 467 kts | 32° |
| 2026-04-22 15:46 | 20.69688 | 110.71897 | 19263 ft | 469 kts | 32° |
| 2026-04-22 15:46 | 20.72382 | 110.73869 | 19545 ft | 471 kts | 32° |
| 2026-04-22 15:47 | 20.75091 | 110.75852 | 19824 ft | 473 kts | 32° |
| 2026-04-22 15:47 | 20.77810 | 110.77841 | 20100 ft | 475 kts | 32° |
| 2026-04-22 15:47 | 20.80542 | 110.79839 | 20373 ft | 477 kts | 32° |
| 2026-04-22 15:47 | 20.83284 | 110.81842 | 20638 ft | 478 kts | 32° |
| 2026-04-22 15:48 | 20.86038 | 110.83852 | 20898 ft | 480 kts | 32° |
| 2026-04-22 15:48 | 20.88764 | 110.85843 | 21149 ft | 482 kts | 32° |
| 2026-04-22 15:48 | 20.91540 | 110.87874 | 21393 ft | 484 kts | 32° |
| 2026-04-22 15:48 | 20.94324 | 110.89913 | 21628 ft | 486 kts | 32° |
| 2026-04-22 15:49 | 20.97118 | 110.91960 | 21852 ft | 488 kts | 32° |
| 2026-04-22 15:49 | 20.99921 | 110.94018 | 22074 ft | 489 kts | 32° |
| 2026-04-22 15:49 | 21.02730 | 110.96081 | 22283 ft | 491 kts | 32° |
| 2026-04-22 15:49 | 21.05549 | 110.98152 | 22483 ft | 492 kts | 32° |
| 2026-04-22 15:50 | 21.08378 | 111.00230 | 22692 ft | 494 kts | 32° |
| 2026-04-22 15:50 | 21.11180 | 111.02288 | 22885 ft | 496 kts | 32° |
| 2026-04-22 15:50 | 21.14033 | 111.04381 | 23044 ft | 498 kts | 32° |
| 2026-04-22 15:50 | 21.16899 | 111.06485 | 23229 ft | 500 kts | 32° |
| 2026-04-22 15:51 | 21.19776 | 111.08597 | 23417 ft | 502 kts | 32° |
| 2026-04-22 15:51 | 21.22657 | 111.10718 | 23586 ft | 503 kts | 32° |
| 2026-04-22 15:51 | 21.25541 | 111.12847 | 23756 ft | 504 kts | 32° |
| 2026-04-22 15:51 | 21.28434 | 111.14985 | 23955 ft | 505 kts | 32° |
| 2026-04-22 15:52 | 21.31315 | 111.17114 | 24228 ft | 503 kts | 32° |
| 2026-04-22 15:52 | 21.34161 | 111.19213 | 24494 ft | 502 kts | 32° |
| 2026-04-22 15:52 | 21.37036 | 111.21334 | 24754 ft | 502 kts | 32° |
| 2026-04-22 15:52 | 21.39910 | 111.23457 | 25014 ft | 502 kts | 32° |
| 2026-04-22 15:53 | 21.42787 | 111.25581 | 25252 ft | 502 kts | 31° |
| 2026-04-22 15:53 | 21.45664 | 111.27704 | 25518 ft | 502 kts | 32° |
| 2026-04-22 15:53 | 21.48535 | 111.29826 | 25794 ft | 501 kts | 32° |
| 2026-04-22 15:53 | 21.51404 | 111.31948 | 26077 ft | 501 kts | 32° |
| 2026-04-22 15:54 | 21.54270 | 111.34070 | 26368 ft | 500 kts | 32° |
| 2026-04-22 15:54 | 21.57095 | 111.36161 | 26666 ft | 499 kts | 32° |
| 2026-04-22 15:54 | 21.59955 | 111.38281 | 26969 ft | 499 kts | 32° |
| 2026-04-22 15:54 | 21.62809 | 111.40400 | 27272 ft | 498 kts | 32° |
| 2026-04-22 15:55 | 21.65656 | 111.42514 | 27585 ft | 498 kts | 32° |
| 2026-04-22 15:55 | 21.68508 | 111.44632 | 27887 ft | 498 kts | 31° |
| 2026-04-22 15:55 | 21.71365 | 111.46750 | 28168 ft | 499 kts | 31° |
| 2026-04-22 15:55 | 21.74217 | 111.48864 | 28478 ft | 498 kts | 31° |
| 2026-04-22 15:56 | 21.77033 | 111.50956 | 28796 ft | 498 kts | 31° |
| 2026-04-22 15:56 | 21.79881 | 111.53073 | 29125 ft | 497 kts | 31° |
| 2026-04-22 15:56 | 21.82724 | 111.55187 | 29459 ft | 497 kts | 31° |
| 2026-04-22 15:56 | 21.85568 | 111.57304 | 29789 ft | 496 kts | 31° |
| 2026-04-22 15:57 | 21.88401 | 111.59417 | 30097 ft | 496 kts | 31° |
| 2026-04-22 15:57 | 21.91233 | 111.61529 | 30400 ft | 495 kts | 31° |
| 2026-04-22 15:57 | 21.94060 | 111.63639 | 30727 ft | 494 kts | 31° |
| 2026-04-22 15:57 | 21.96883 | 111.65745 | 31002 ft | 493 kts | 31° |
| 2026-04-22 15:58 | 21.99698 | 111.67842 | 31290 ft | 492 kts | 31° |
| 2026-04-22 15:58 | 22.02476 | 111.69910 | 31579 ft | 491 kts | 30° |
| 2026-04-22 15:58 | 22.05280 | 111.72002 | 31892 ft | 490 kts | 30° |
| 2026-04-22 15:58 | 22.08080 | 111.74097 | 32211 ft | 489 kts | 30° |
| 2026-04-22 15:59 | 22.10873 | 111.76186 | 32557 ft | 488 kts | 30° |
| 2026-04-22 15:59 | 22.13656 | 111.78267 | 32911 ft | 486 kts | 30° |
| 2026-04-22 15:59 | 22.16431 | 111.80342 | 33237 ft | 484 kts | 30° |
| 2026-04-22 15:59 | 22.19193 | 111.82411 | 33572 ft | 483 kts | 30° |
| 2026-04-22 16:00 | 22.21953 | 111.84479 | 33923 ft | 482 kts | 30° |
| 2026-04-22 16:00 | 22.24706 | 111.86541 | 34218 ft | 481 kts | 30° |
| 2026-04-22 16:00 | 22.27415 | 111.88567 | 34468 ft | 481 kts | 30° |
| 2026-04-22 16:00 | 22.30164 | 111.90623 | 34730 ft | 480 kts | 30° |
| 2026-04-22 16:01 | 22.32903 | 111.92673 | 34930 ft | 480 kts | 30° |
| 2026-04-22 16:01 | 22.35657 | 111.94738 | 34979 ft | 484 kts | 30° |
| 2026-04-22 16:01 | 22.41226 | 111.98919 | 34982 ft | 489 kts | 30° |
| 2026-04-22 16:02 | 22.46812 | 112.03132 | 34982 ft | 490 kts | 30° |
| 2026-04-22 16:02 | 22.52382 | 112.07334 | 34974 ft | 493 kts | 30° |
| 2026-04-22 16:03 | 22.58019 | 112.11575 | 34972 ft | 494 kts | 30° |
| 2026-04-22 16:03 | 22.63660 | 112.15823 | 34977 ft | 494 kts | 30° |
| 2026-04-22 16:04 | 22.69300 | 112.20083 | 34979 ft | 494 kts | 31° |
| 2026-04-22 16:04 | 22.74892 | 112.24311 | 34981 ft | 494 kts | 30° |
| 2026-04-22 16:05 | 22.80528 | 112.28568 | 34972 ft | 492 kts | 31° |
| 2026-04-22 16:05 | 22.83302 | 112.30669 | 34803 ft | 481 kts | 31° |
| 2026-04-22 16:05 | 22.86015 | 112.32731 | 34548 ft | 472 kts | 31° |
| 2026-04-22 16:06 | 22.88690 | 112.34765 | 34156 ft | 467 kts | 31° |
| 2026-04-22 16:06 | 22.91337 | 112.36775 | 33699 ft | 463 kts | 31° |
| 2026-04-22 16:06 | 22.93968 | 112.38769 | 33207 ft | 460 kts | 31° |
| 2026-04-22 16:06 | 22.96584 | 112.40751 | 32710 ft | 456 kts | 30° |
| 2026-04-22 16:07 | 22.99142 | 112.42691 | 32242 ft | 453 kts | 30° |
| 2026-04-22 16:07 | 23.01703 | 112.44645 | 31681 ft | 448 kts | 32° |
| 2026-04-22 16:07 | 23.03992 | 112.46945 | 30929 ft | 449 kts | 48° |
| 2026-04-22 16:07 | 23.05693 | 112.49779 | 30157 ft | 450 kts | 63° |
| 2026-04-22 16:08 | 23.06712 | 112.52972 | 29322 ft | 447 kts | 79° |
| 2026-04-22 16:08 | 23.07007 | 112.56300 | 28486 ft | 441 kts | 91° |
| 2026-04-22 16:08 | 23.06997 | 112.59621 | 27654 ft | 437 kts | 91° |
| 2026-04-22 16:08 | 23.06988 | 112.62908 | 26864 ft | 433 kts | 91° |
| 2026-04-22 16:09 | 23.06983 | 112.66114 | 26115 ft | 428 kts | 91° |
| 2026-04-22 16:09 | 23.06981 | 112.69326 | 25383 ft | 424 kts | 91° |
| 2026-04-22 16:09 | 23.06978 | 112.72509 | 24674 ft | 419 kts | 91° |
| 2026-04-22 16:09 | 23.06967 | 112.75659 | 23986 ft | 415 kts | 91° |
| 2026-04-22 16:10 | 23.06945 | 112.78780 | 23288 ft | 411 kts | 91° |
| 2026-04-22 16:10 | 23.06916 | 112.81863 | 22557 ft | 406 kts | 91° |
| 2026-04-22 16:10 | 23.06896 | 112.83882 | 22097 ft | 402 kts | 91° |
| 2026-04-22 16:10 | 23.06858 | 112.87904 | 21180 ft | 395 kts | 91° |
| 2026-04-22 16:11 | 23.06834 | 112.90826 | 20534 ft | 390 kts | 91° |
| 2026-04-22 16:11 | 23.06809 | 112.93748 | 19890 ft | 385 kts | 91° |
| 2026-04-22 16:11 | 23.06783 | 112.96635 | 19263 ft | 380 kts | 91° |
| 2026-04-22 16:11 | 23.06755 | 112.99485 | 18654 ft | 375 kts | 91° |
| 2026-04-22 16:12 | 23.06726 | 113.02299 | 18050 ft | 371 kts | 91° |
| 2026-04-22 16:12 | 23.06697 | 113.05074 | 17513 ft | 363 kts | 91° |
| 2026-04-22 16:12 | 23.06672 | 113.07739 | 17379 ft | 343 kts | 91° |
| 2026-04-22 16:12 | 23.06647 | 113.10258 | 17252 ft | 325 kts | 91° |
| 2026-04-22 16:13 | 23.06537 | 113.12656 | 16993 ft | 314 kts | 103° |
| 2026-04-22 16:13 | 23.05789 | 113.14838 | 16761 ft | 306 kts | 126° |
| 2026-04-22 16:13 | 23.04442 | 113.16530 | 16517 ft | 298 kts | 147° |
| 2026-04-22 16:13 | 23.02675 | 113.17604 | 16270 ft | 287 kts | 167° |
| 2026-04-22 16:14 | 23.00748 | 113.17962 | 16032 ft | 277 kts | 186° |
| 2026-04-22 16:14 | 22.98884 | 113.17636 | 15791 ft | 268 kts | 204° |
| 2026-04-22 16:14 | 22.97255 | 113.16728 | 15556 ft | 261 kts | 221° |
| 2026-04-22 16:14 | 22.96368 | 113.15866 | 15402 ft | 257 kts | 232° |
| 2026-04-22 16:15 | 22.95389 | 113.14274 | 15161 ft | 252 kts | 248° |
| 2026-04-22 16:15 | 22.94887 | 113.12472 | 14929 ft | 250 kts | 263° |
| 2026-04-22 16:15 | 22.94743 | 113.09983 | 14631 ft | 249 kts | 269° |
| 2026-04-22 16:15 | 22.94752 | 113.08108 | 14402 ft | 249 kts | 270° |
| 2026-04-22 16:16 | 22.94790 | 113.06234 | 14174 ft | 248 kts | 271° |
| 2026-04-22 16:16 | 22.94832 | 113.04371 | 13948 ft | 247 kts | 271° |
| 2026-04-22 16:16 | 22.94866 | 113.02511 | 13722 ft | 246 kts | 270° |
| 2026-04-22 16:16 | 22.94913 | 113.01284 | 13562 ft | 246 kts | 276° |
| 2026-04-22 16:17 | 22.95317 | 112.99485 | 13302 ft | 247 kts | 290° |
| 2026-04-22 16:17 | 22.96165 | 112.97868 | 13050 ft | 249 kts | 305° |
| 2026-04-22 16:17 | 22.97427 | 112.96558 | 12798 ft | 254 kts | 321° |
| 2026-04-22 16:17 | 22.99021 | 112.95696 | 12544 ft | 260 kts | 338° |
| 2026-04-22 16:18 | 23.00821 | 112.95393 | 12301 ft | 266 kts | 356° |
| 2026-04-22 16:18 | 23.03242 | 112.95961 | 11979 ft | 275 kts | 21° |
| 2026-04-22 16:18 | 23.04358 | 112.96678 | 11812 ft | 278 kts | 34° |
| 2026-04-22 16:18 | 23.05696 | 112.98206 | 11561 ft | 282 kts | 55° |
| 2026-04-22 16:19 | 23.06502 | 113.00107 | 11333 ft | 283 kts | 75° |
| 2026-04-22 16:19 | 23.06762 | 113.02218 | 11097 ft | 282 kts | 88° |
| 2026-04-22 16:19 | 23.06808 | 113.04347 | 10862 ft | 281 kts | 91° |
| 2026-04-22 16:19 | 23.06781 | 113.06466 | 10679 ft | 280 kts | 92° |
| 2026-04-22 16:20 | 23.06731 | 113.08572 | 10646 ft | 280 kts | 93° |
| 2026-04-22 16:20 | 23.06685 | 113.10686 | 10652 ft | 280 kts | 92° |
| 2026-04-22 16:20 | 23.06511 | 113.12791 | 10649 ft | 278 kts | 109° |
| 2026-04-22 16:20 | 23.05652 | 113.14624 | 10650 ft | 271 kts | 134° |
| 2026-04-22 16:21 | 23.04240 | 113.15920 | 10558 ft | 276 kts | 157° |
| 2026-04-22 16:21 | 23.02418 | 113.16494 | 10330 ft | 284 kts | 182° |
| 2026-04-22 16:21 | 23.00381 | 113.16103 | 10100 ft | 316 kts | 206° |
| 2026-04-22 16:21 | 22.98472 | 113.14725 | 9868 ft | 346 kts | 228° |
| 2026-04-22 16:22 | 22.96951 | 113.10148 | 9566 ft | 317 kts | 274° |
| 2026-04-22 16:22 | 22.97890 | 113.07262 | 9400 ft | 305 kts | 302° |
| 2026-04-22 16:22 | 22.98843 | 113.06121 | 9308 ft | 301 kts | 317° |
| 2026-04-22 16:23 | 23.02647 | 113.04713 | 9057 ft | 299 kts | 360° |
| 2026-04-22 16:23 | 23.04673 | 113.05244 | 8932 ft | 304 kts | 22° |
| 2026-04-22 16:23 | 23.06548 | 113.06328 | 8807 ft | 305 kts | 26° |
| 2026-04-22 16:24 | 23.08406 | 113.07441 | 8686 ft | 305 kts | 26° |
| 2026-04-22 16:24 | 23.12105 | 113.09673 | 8439 ft | 303 kts | 26° |
| 2026-04-22 16:24 | 23.13949 | 113.10786 | 8314 ft | 302 kts | 26° |
| 2026-04-22 16:25 | 23.15787 | 113.11892 | 8189 ft | 302 kts | 26° |
| 2026-04-22 16:25 | 23.19263 | 113.14402 | 7950 ft | 303 kts | 38° |
| 2026-04-22 16:25 | 23.20788 | 113.15986 | 7833 ft | 304 kts | 45° |
| 2026-04-22 16:26 | 23.22131 | 113.17759 | 7720 ft | 304 kts | 53° |
| 2026-04-22 16:26 | 23.23342 | 113.19641 | 7603 ft | 303 kts | 53° |
| 2026-04-22 16:26 | 23.24550 | 113.21511 | 7483 ft | 302 kts | 53° |
| 2026-04-22 16:26 | 23.25758 | 113.23372 | 7369 ft | 301 kts | 53° |
| 2026-04-22 16:27 | 23.26967 | 113.25233 | 7236 ft | 301 kts | 53° |
| 2026-04-22 16:27 | 23.28171 | 113.27093 | 7130 ft | 300 kts | 53° |
| 2026-04-22 16:27 | 23.29351 | 113.28920 | 7011 ft | 299 kts | 53° |
| 2026-04-22 16:27 | 23.30548 | 113.30770 | 6891 ft | 298 kts | 53° |
| 2026-04-22 16:28 | 23.31740 | 113.32614 | 6783 ft | 298 kts | 53° |
| 2026-04-22 16:28 | 23.32930 | 113.34454 | 6665 ft | 297 kts | 53° |
| 2026-04-22 16:28 | 23.34115 | 113.36291 | 6547 ft | 296 kts | 53° |
| 2026-04-22 16:28 | 23.35296 | 113.38127 | 6440 ft | 296 kts | 53° |
| 2026-04-22 16:29 | 23.36493 | 113.39937 | 6318 ft | 294 kts | 49° |
| 2026-04-22 16:29 | 23.37929 | 113.41510 | 6201 ft | 292 kts | 37° |
| 2026-04-22 16:29 | 23.39602 | 113.42734 | 6075 ft | 289 kts | 25° |
| 2026-04-22 16:29 | 23.41414 | 113.43572 | 5950 ft | 285 kts | 14° |
| 2026-04-22 16:30 | 23.43314 | 113.44111 | 5843 ft | 276 kts | 11° |
| 2026-04-22 16:30 | 23.45104 | 113.44598 | 5903 ft | 256 kts | 11° |
| 2026-04-22 16:30 | 23.46779 | 113.45058 | 5909 ft | 242 kts | 11° |
| 2026-04-22 16:30 | 23.48362 | 113.45492 | 5906 ft | 228 kts | 11° |
| 2026-04-22 16:31 | 23.49869 | 113.45905 | 5921 ft | 220 kts | 10° |
| 2026-04-22 16:31 | 23.51349 | 113.46307 | 5908 ft | 218 kts | 9° |
| 2026-04-22 16:31 | 23.52819 | 113.46521 | 5920 ft | 215 kts | 356° |
| 2026-04-22 16:31 | 23.54293 | 113.46383 | 5902 ft | 212 kts | 344° |
| 2026-04-22 16:32 | 23.55687 | 113.45917 | 5782 ft | 208 kts | 333° |
| 2026-04-22 16:32 | 23.56985 | 113.45229 | 5659 ft | 207 kts | 330° |
| 2026-04-22 16:32 | 23.58281 | 113.44541 | 5537 ft | 207 kts | 330° |
| 2026-04-22 16:32 | 23.59577 | 113.43860 | 5424 ft | 207 kts | 330° |
| 2026-04-22 16:33 | 23.60873 | 113.43178 | 5294 ft | 207 kts | 330° |
| 2026-04-22 16:33 | 23.62165 | 113.42496 | 5178 ft | 207 kts | 330° |
| 2026-04-22 16:33 | 23.63460 | 113.41812 | 5057 ft | 207 kts | 331° |
| 2026-04-22 16:33 | 23.64737 | 113.41138 | 4939 ft | 207 kts | 330° |
| 2026-04-22 16:34 | 23.66024 | 113.40451 | 4881 ft | 203 kts | 326° |
| 2026-04-22 16:34 | 23.67050 | 113.39486 | 4953 ft | 185 kts | 303° |
| 2026-04-22 16:34 | 23.67352 | 113.38268 | 4954 ft | 160 kts | 254° |
| 2026-04-22 16:34 | 23.66664 | 113.37458 | 4907 ft | 151 kts | 198° |
| 2026-04-22 16:35 | 23.65636 | 113.37653 | 4788 ft | 156 kts | 160° |
| 2026-04-22 16:35 | 23.64618 | 113.37852 | 4604 ft | 145 kts | 201° |
| 2026-04-22 16:35 | 23.63697 | 113.37463 | 4474 ft | 147 kts | 195° |
| 2026-04-22 16:35 | 23.62691 | 113.37286 | 4292 ft | 146 kts | 195° |
| 2026-04-22 16:36 | 23.61715 | 113.37047 | 4109 ft | 146 kts | 196° |
| 2026-04-22 16:36 | 23.60725 | 113.36791 | 3931 ft | 146 kts | 197° |
| 2026-04-22 16:36 | 23.59745 | 113.36531 | 3738 ft | 144 kts | 197° |
| 2026-04-22 16:36 | 23.58773 | 113.36270 | 3551 ft | 143 kts | 197° |
| 2026-04-22 16:37 | 23.57808 | 113.36010 | 3365 ft | 143 kts | 196° |
| 2026-04-22 16:37 | 23.56845 | 113.35749 | 3181 ft | 142 kts | 196° |
| 2026-04-22 16:37 | 23.55881 | 113.35488 | 3006 ft | 143 kts | 196° |
| 2026-04-22 16:37 | 23.54917 | 113.35227 | 2820 ft | 143 kts | 195° |
| 2026-04-22 16:38 | 23.53953 | 113.34966 | 2642 ft | 143 kts | 196° |
| 2026-04-22 16:38 | 23.52999 | 113.34708 | 2446 ft | 143 kts | 197° |
| 2026-04-22 16:38 | 23.52031 | 113.34446 | 2266 ft | 144 kts | 196° |
| 2026-04-22 16:38 | 23.51061 | 113.34183 | 2070 ft | 144 kts | 196° |
| 2026-04-22 16:39 | 23.50078 | 113.33917 | 1894 ft | 147 kts | 195° |
| 2026-04-22 16:39 | 23.49078 | 113.33646 | 1701 ft | 149 kts | 195° |
| 2026-04-22 16:39 | 23.48068 | 113.33373 | 1494 ft | 150 kts | 195° |
| 2026-04-22 16:39 | 23.47057 | 113.33099 | 1299 ft | 151 kts | 195° |
| 2026-04-22 16:40 | 23.46043 | 113.32825 | 1109 ft | 150 kts | 195° |
| 2026-04-22 16:40 | 23.45040 | 113.32554 | 928 ft | 147 kts | 194° |
| 2026-04-22 16:40 | 23.42839 | 113.31959 | 532 ft | 140 kts | 194° |
| 2026-04-22 16:41 | 23.41887 | 113.31701 | 333 ft | 143 kts | 194° |
| 2026-04-22 16:41 | 23.40935 | 113.31441 | 125 ft | 144 kts | 196° |
| 2026-04-22 16:41 | 23.40052 | 113.31189 | 52 ft | 98 kts | 192° |
| 2026-04-22 16:41 | 23.39616 | 113.31091 | 54 ft | 52 kts | 192° |
| 2026-04-22 16:42 | 23.39314 | 113.31007 | 54 ft | 40 kts | 193° |
| 2026-04-22 16:42 | 23.39055 | 113.30940 | 54 ft | 36 kts | 193° |
| 2026-04-22 16:42 | 23.38999 | 113.30888 | 54 ft | 6 kts | 263° |
| 2026-04-22 16:42 | 23.38990 | 113.30859 | 50 ft | 6 kts | 241° |
| 2026-04-22 16:43 | 23.38960 | 113.30842 | 53 ft | 5 kts | 216° |
| 2026-04-22 16:43 | 23.38951 | 113.30833 | 54 ft | 0 kts | 221° |
| 2026-04-22 16:46 | 23.38944 | 113.30827 | 55 ft | 3 kts | 221° |
| 2026-04-22 16:46 | 23.38932 | 113.30815 | 55 ft | 4 kts | 222° |
| 2026-04-22 16:46 | 23.38903 | 113.30786 | 55 ft | 7 kts | 223° |
| 2026-04-22 16:46 | 23.38862 | 113.30745 | 54 ft | 9 kts | 223° |
| 2026-04-22 16:47 | 23.38827 | 113.30679 | 55 ft | 12 kts | 256° |
| 2026-04-22 16:47 | 23.38850 | 113.30592 | 54 ft | 14 kts | 329° |
| 2026-04-22 16:47 | 23.38953 | 113.30605 | 54 ft | 17 kts | 15° |
| 2026-04-22 16:47 | 23.39125 | 113.30652 | 54 ft | 21 kts | 15° |
| 2026-04-22 16:48 | 23.39227 | 113.30678 | 52 ft | 23 kts | 13° |
| 2026-04-22 16:48 | 23.39389 | 113.30722 | 52 ft | 23 kts | 14° |
| 2026-04-22 16:48 | 23.39508 | 113.30724 | 52 ft | 14 kts | 312° |
| 2026-04-22 16:48 | 23.39590 | 113.30672 | 54 ft | 17 kts | 17° |
| 2026-04-22 16:49 | 23.39712 | 113.30712 | 54 ft | 20 kts | 15° |
| 2026-04-22 16:49 | 23.39856 | 113.30753 | 54 ft | 23 kts | 15° |
| 2026-04-22 16:49 | 23.40006 | 113.30794 | 54 ft | 22 kts | 13° |
| 2026-04-22 16:49 | 23.40148 | 113.30831 | 54 ft | 15 kts | 14° |
| 2026-04-22 16:50 | 23.40256 | 113.30835 | 54 ft | 17 kts | 342° |
| 2026-04-22 16:50 | 23.40305 | 113.30721 | 52 ft | 19 kts | 281° |
| 2026-04-22 16:50 | 23.40347 | 113.30581 | 53 ft | 14 kts | 287° |
| 2026-04-22 16:50 | 23.40284 | 113.30533 | 54 ft | 14 kts | 179° |
| 2026-04-22 16:51 | 23.40242 | 113.30524 | 54 ft | 2 kts | 191° |
| 2026-04-22 16:51 | 23.40235 | 113.30523 | 54 ft | 0 kts | 191° |